sensor_id;sensor_type;location;lat;lon;timestamp;P1;durP1;ratioP1;P2;durP2;ratioP2
22904;SDS011;11619;50.140;8.518;2023-04-16T00:01:13;6.88;;;5.88;;
22904;SDS011;11619;50.140;8.518;2023-04-16T00:03:39;7.18;;;6.40;;
22904;SDS011;11619;50.140;8.518;2023-04-16T00:06:06;6.85;;;5.70;;
22904;SDS011;11619;50.140;8.518;2023-04-16T00:08:33;8.02;;;6.05;;
22904;SDS011;11619;50.140;8.518;2023-04-16T00:11:01;8.25;;;6.88;;
22904;SDS011;11619;50.140;8.518;2023-04-16T00:13:27;7.45;;;6.43;;
22904;SDS011;11619;50.140;8.518;2023-04-16T00:15:53;7.50;;;5.88;;
22904;SDS011;11619;50.140;8.518;2023-04-16T00:18:20;7.65;;;6.90;;
22904;SDS011;11619;50.140;8.518;2023-04-16T00:20:47;8.00;;;7.15;;
22904;SDS011;11619;50.140;8.518;2023-04-16T00:23:13;7.55;;;6.45;;
22904;SDS011;11619;50.140;8.518;2023-04-16T00:25:40;8.00;;;7.20;;
22904;SDS011;11619;50.140;8.518;2023-04-16T00:28:07;9.00;;;7.22;;
22904;SDS011;11619;50.140;8.518;2023-04-16T00:30:36;6.97;;;5.82;;
22904;SDS011;11619;50.140;8.518;2023-04-16T00:33:02;8.23;;;6.88;;
22904;SDS011;11619;50.140;8.518;2023-04-16T00:35:29;7.88;;;6.82;;
22904;SDS011;11619;50.140;8.518;2023-04-16T00:37:56;8.00;;;7.13;;
22904;SDS011;11619;50.140;8.518;2023-04-16T00:40:23;7.38;;;6.63;;
22904;SDS011;11619;50.140;8.518;2023-04-16T00:42:52;7.80;;;6.68;;
22904;SDS011;11619;50.140;8.518;2023-04-16T00:45:19;7.60;;;6.82;;
22904;SDS011;11619;50.140;8.518;2023-04-16T00:47:45;8.10;;;6.85;;
22904;SDS011;11619;50.140;8.518;2023-04-16T00:50:12;8.60;;;6.63;;
22904;SDS011;11619;50.140;8.518;2023-04-16T00:52:39;7.53;;;6.82;;
22904;SDS011;11619;50.140;8.518;2023-04-16T00:55:06;8.02;;;6.97;;
22904;SDS011;11619;50.140;8.518;2023-04-16T00:57:32;7.90;;;6.85;;
22904;SDS011;11619;50.140;8.518;2023-04-16T00:59:59;8.10;;;6.57;;
22904;SDS011;11619;50.140;8.518;2023-04-16T01:02:25;7.97;;;7.13;;
22904;SDS011;11619;50.140;8.518;2023-04-16T01:04:52;8.07;;;7.25;;
22904;SDS011;11619;50.140;8.518;2023-04-16T01:07:18;7.07;;;6.35;;
22904;SDS011;11619;50.140;8.518;2023-04-16T01:09:44;7.50;;;6.70;;
22904;SDS011;11619;50.140;8.518;2023-04-16T01:12:11;6.93;;;6.22;;
22904;SDS011;11619;50.140;8.518;2023-04-16T01:14:38;8.32;;;6.57;;
22904;SDS011;11619;50.140;8.518;2023-04-16T01:17:04;7.05;;;6.35;;
22904;SDS011;11619;50.140;8.518;2023-04-16T01:19:31;7.40;;;6.35;;
22904;SDS011;11619;50.140;8.518;2023-04-16T01:21:57;8.30;;;7.18;;
22904;SDS011;11619;50.140;8.518;2023-04-16T01:24:24;7.70;;;6.45;;
22904;SDS011;11619;50.140;8.518;2023-04-16T01:26:50;7.85;;;6.70;;
22904;SDS011;11619;50.140;8.518;2023-04-16T01:29:16;6.68;;;5.95;;
22904;SDS011;11619;50.140;8.518;2023-04-16T01:31:43;7.03;;;6.32;;
22904;SDS011;11619;50.140;8.518;2023-04-16T01:34:09;7.28;;;6.57;;
22904;SDS011;11619;50.140;8.518;2023-04-16T01:36:36;7.65;;;6.88;;
22904;SDS011;11619;50.140;8.518;2023-04-16T01:39:02;6.55;;;5.90;;
22904;SDS011;11619;50.140;8.518;2023-04-16T01:41:30;7.22;;;6.38;;
22904;SDS011;11619;50.140;8.518;2023-04-16T01:43:56;8.18;;;6.95;;
22904;SDS011;11619;50.140;8.518;2023-04-16T01:46:26;7.65;;;6.28;;
22904;SDS011;11619;50.140;8.518;2023-04-16T01:48:54;7.82;;;6.32;;
22904;SDS011;11619;50.140;8.518;2023-04-16T01:51:21;8.23;;;6.88;;
22904;SDS011;11619;50.140;8.518;2023-04-16T01:53:48;7.80;;;6.05;;
22904;SDS011;11619;50.140;8.518;2023-04-16T01:56:15;7.85;;;6.85;;
22904;SDS011;11619;50.140;8.518;2023-04-16T01:58:41;7.50;;;6.50;;
22904;SDS011;11619;50.140;8.518;2023-04-16T02:01:08;9.23;;;6.32;;
22904;SDS011;11619;50.140;8.518;2023-04-16T02:03:34;6.95;;;6.35;;
22904;SDS011;11619;50.140;8.518;2023-04-16T02:06:01;7.45;;;6.55;;
22904;SDS011;11619;50.140;8.518;2023-04-16T02:08:28;7.95;;;6.78;;
22904;SDS011;11619;50.140;8.518;2023-04-16T02:10:54;7.25;;;6.38;;
22904;SDS011;11619;50.140;8.518;2023-04-16T02:13:21;12.15;;;8.82;;
22904;SDS011;11619;50.140;8.518;2023-04-16T02:15:48;9.30;;;7.82;;
22904;SDS011;11619;50.140;8.518;2023-04-16T02:18:15;7.95;;;7.25;;
22904;SDS011;11619;50.140;8.518;2023-04-16T02:20:42;9.38;;;8.43;;
22904;SDS011;11619;50.140;8.518;2023-04-16T02:23:09;8.45;;;7.60;;
22904;SDS011;11619;50.140;8.518;2023-04-16T02:25:37;10.77;;;7.68;;
22904;SDS011;11619;50.140;8.518;2023-04-16T02:28:07;8.90;;;8.02;;
22904;SDS011;11619;50.140;8.518;2023-04-16T02:30:35;10.32;;;9.32;;
22904;SDS011;11619;50.140;8.518;2023-04-16T02:33:02;8.63;;;7.75;;
22904;SDS011;11619;50.140;8.518;2023-04-16T02:35:30;8.20;;;7.40;;
22904;SDS011;11619;50.140;8.518;2023-04-16T02:38:00;9.07;;;7.53;;
22904;SDS011;11619;50.140;8.518;2023-04-16T02:40:27;8.30;;;7.30;;
22904;SDS011;11619;50.140;8.518;2023-04-16T02:42:54;9.13;;;7.85;;
22904;SDS011;11619;50.140;8.518;2023-04-16T02:45:20;10.43;;;8.85;;
22904;SDS011;11619;50.140;8.518;2023-04-16T02:47:47;9.68;;;8.35;;
22904;SDS011;11619;50.140;8.518;2023-04-16T02:50:20;8.70;;;7.80;;
22904;SDS011;11619;50.140;8.518;2023-04-16T02:52:47;9.18;;;8.18;;
22904;SDS011;11619;50.140;8.518;2023-04-16T02:55:13;9.95;;;8.82;;
22904;SDS011;11619;50.140;8.518;2023-04-16T02:57:40;10.85;;;9.50;;
22904;SDS011;11619;50.140;8.518;2023-04-16T03:00:07;10.88;;;9.52;;
22904;SDS011;11619;50.140;8.518;2023-04-16T03:02:34;12.45;;;9.23;;
22904;SDS011;11619;50.140;8.518;2023-04-16T03:05:01;9.40;;;8.40;;
22904;SDS011;11619;50.140;8.518;2023-04-16T03:07:28;11.48;;;9.32;;
22904;SDS011;11619;50.140;8.518;2023-04-16T03:09:54;10.68;;;9.00;;
22904;SDS011;11619;50.140;8.518;2023-04-16T03:12:21;12.93;;;9.52;;
22904;SDS011;11619;50.140;8.518;2023-04-16T03:14:49;10.60;;;9.45;;
22904;SDS011;11619;50.140;8.518;2023-04-16T03:17:16;11.30;;;9.98;;
22904;SDS011;11619;50.140;8.518;2023-04-16T03:19:42;11.38;;;10.18;;
22904;SDS011;11619;50.140;8.518;2023-04-16T03:22:09;11.75;;;10.55;;
22904;SDS011;11619;50.140;8.518;2023-04-16T03:24:35;12.07;;;10.60;;
22904;SDS011;11619;50.140;8.518;2023-04-16T03:27:03;11.05;;;9.68;;
22904;SDS011;11619;50.140;8.518;2023-04-16T03:29:29;13.73;;;10.13;;
22904;SDS011;11619;50.140;8.518;2023-04-16T03:31:56;11.65;;;9.93;;
22904;SDS011;11619;50.140;8.518;2023-04-16T03:34:22;10.85;;;9.48;;
22904;SDS011;11619;50.140;8.518;2023-04-16T03:36:49;12.45;;;11.15;;
22904;SDS011;11619;50.140;8.518;2023-04-16T03:39:15;11.27;;;10.05;;
22904;SDS011;11619;50.140;8.518;2023-04-16T03:41:41;11.43;;;9.88;;
22904;SDS011;11619;50.140;8.518;2023-04-16T03:44:08;11.77;;;9.18;;
22904;SDS011;11619;50.140;8.518;2023-04-16T03:46:34;10.40;;;9.30;;
22904;SDS011;11619;50.140;8.518;2023-04-16T03:49:01;11.70;;;10.35;;
22904;SDS011;11619;50.140;8.518;2023-04-16T03:51:27;11.50;;;10.30;;
22904;SDS011;11619;50.140;8.518;2023-04-16T03:53:54;10.75;;;9.50;;
22904;SDS011;11619;50.140;8.518;2023-04-16T03:56:20;10.68;;;9.48;;
22904;SDS011;11619;50.140;8.518;2023-04-16T03:58:46;12.70;;;10.50;;
22904;SDS011;11619;50.140;8.518;2023-04-16T04:01:13;15.15;;;11.38;;
22904;SDS011;11619;50.140;8.518;2023-04-16T04:03:39;11.93;;;10.73;;
22904;SDS011;11619;50.140;8.518;2023-04-16T04:06:06;11.70;;;10.38;;
22904;SDS011;11619;50.140;8.518;2023-04-16T04:08:33;14.45;;;10.93;;
22904;SDS011;11619;50.140;8.518;2023-04-16T04:11:00;12.35;;;10.57;;
22904;SDS011;11619;50.140;8.518;2023-04-16T04:13:26;11.60;;;10.35;;
22904;SDS011;11619;50.140;8.518;2023-04-16T04:15:53;12.57;;;10.60;;
22904;SDS011;11619;50.140;8.518;2023-04-16T04:18:19;14.52;;;10.30;;
22904;SDS011;11619;50.140;8.518;2023-04-16T04:20:46;12.80;;;10.95;;
22904;SDS011;11619;50.140;8.518;2023-04-16T04:23:12;10.73;;;9.48;;
22904;SDS011;11619;50.140;8.518;2023-04-16T04:25:39;12.18;;;10.25;;
22904;SDS011;11619;50.140;8.518;2023-04-16T04:28:05;11.07;;;9.38;;
22904;SDS011;11619;50.140;8.518;2023-04-16T04:30:31;11.15;;;9.85;;
22904;SDS011;11619;50.140;8.518;2023-04-16T04:32:58;12.55;;;10.40;;
22904;SDS011;11619;50.140;8.518;2023-04-16T04:35:25;11.82;;;9.27;;
22904;SDS011;11619;50.140;8.518;2023-04-16T04:37:51;12.57;;;9.85;;
22904;SDS011;11619;50.140;8.518;2023-04-16T04:40:17;11.23;;;9.10;;
22904;SDS011;11619;50.140;8.518;2023-04-16T04:42:44;10.57;;;9.23;;
22904;SDS011;11619;50.140;8.518;2023-04-16T04:45:10;10.52;;;8.93;;
22904;SDS011;11619;50.140;8.518;2023-04-16T04:47:37;11.68;;;9.10;;
22904;SDS011;11619;50.140;8.518;2023-04-16T04:50:04;10.35;;;9.23;;
22904;SDS011;11619;50.140;8.518;2023-04-16T04:52:30;10.93;;;9.20;;
22904;SDS011;11619;50.140;8.518;2023-04-16T04:54:57;9.02;;;7.95;;
22904;SDS011;11619;50.140;8.518;2023-04-16T04:57:23;13.30;;;10.05;;
22904;SDS011;11619;50.140;8.518;2023-04-16T04:59:49;12.23;;;10.10;;
22904;SDS011;11619;50.140;8.518;2023-04-16T05:02:16;9.38;;;8.30;;
22904;SDS011;11619;50.140;8.518;2023-04-16T05:04:43;11.60;;;9.82;;
22904;SDS011;11619;50.140;8.518;2023-04-16T05:07:09;9.85;;;8.85;;
22904;SDS011;11619;50.140;8.518;2023-04-16T05:09:36;10.18;;;8.27;;
22904;SDS011;11619;50.140;8.518;2023-04-16T05:12:02;10.48;;;8.82;;
22904;SDS011;11619;50.140;8.518;2023-04-16T05:14:29;10.30;;;8.73;;
22904;SDS011;11619;50.140;8.518;2023-04-16T05:16:55;12.18;;;9.75;;
22904;SDS011;11619;50.140;8.518;2023-04-16T05:19:22;11.35;;;8.63;;
22904;SDS011;11619;50.140;8.518;2023-04-16T05:21:48;8.80;;;7.90;;
22904;SDS011;11619;50.140;8.518;2023-04-16T05:24:14;9.35;;;8.38;;
22904;SDS011;11619;50.140;8.518;2023-04-16T05:26:41;10.82;;;9.43;;
22904;SDS011;11619;50.140;8.518;2023-04-16T05:29:07;9.52;;;8.52;;
22904;SDS011;11619;50.140;8.518;2023-04-16T05:31:35;10.95;;;8.65;;
22904;SDS011;11619;50.140;8.518;2023-04-16T05:34:02;10.63;;;9.40;;
22904;SDS011;11619;50.140;8.518;2023-04-16T05:36:28;10.05;;;8.85;;
22904;SDS011;11619;50.140;8.518;2023-04-16T05:38:54;11.27;;;9.43;;
22904;SDS011;11619;50.140;8.518;2023-04-16T05:41:21;10.48;;;9.07;;
22904;SDS011;11619;50.140;8.518;2023-04-16T05:43:47;10.88;;;9.15;;
22904;SDS011;11619;50.140;8.518;2023-04-16T05:46:14;10.90;;;9.20;;
22904;SDS011;11619;50.140;8.518;2023-04-16T05:48:41;11.55;;;10.10;;
22904;SDS011;11619;50.140;8.518;2023-04-16T05:51:07;10.07;;;8.93;;
22904;SDS011;11619;50.140;8.518;2023-04-16T05:53:33;10.93;;;9.55;;
22904;SDS011;11619;50.140;8.518;2023-04-16T05:56:00;11.27;;;9.95;;
22904;SDS011;11619;50.140;8.518;2023-04-16T05:58:26;12.43;;;9.73;;
22904;SDS011;11619;50.140;8.518;2023-04-16T06:00:53;11.13;;;9.95;;
22904;SDS011;11619;50.140;8.518;2023-04-16T06:03:19;10.77;;;9.48;;
22904;SDS011;11619;50.140;8.518;2023-04-16T06:05:46;12.75;;;10.45;;
22904;SDS011;11619;50.140;8.518;2023-04-16T06:08:12;10.93;;;9.73;;
22904;SDS011;11619;50.140;8.518;2023-04-16T06:10:38;11.48;;;9.38;;
22904;SDS011;11619;50.140;8.518;2023-04-16T06:13:05;11.05;;;9.52;;
22904;SDS011;11619;50.140;8.518;2023-04-16T06:15:31;11.50;;;9.65;;
22904;SDS011;11619;50.140;8.518;2023-04-16T06:17:57;11.75;;;9.68;;
22904;SDS011;11619;50.140;8.518;2023-04-16T06:20:26;11.40;;;9.45;;
22904;SDS011;11619;50.140;8.518;2023-04-16T06:22:52;9.40;;;8.50;;
22904;SDS011;11619;50.140;8.518;2023-04-16T06:25:19;12.68;;;9.00;;
22904;SDS011;11619;50.140;8.518;2023-04-16T06:27:45;11.98;;;8.32;;
22904;SDS011;11619;50.140;8.518;2023-04-16T06:30:12;8.88;;;7.97;;
22904;SDS011;11619;50.140;8.518;2023-04-16T06:32:41;7.97;;;7.18;;
22904;SDS011;11619;50.140;8.518;2023-04-16T06:35:08;8.55;;;7.28;;
22904;SDS011;11619;50.140;8.518;2023-04-16T06:37:35;7.95;;;6.72;;
22904;SDS011;11619;50.140;8.518;2023-04-16T06:40:01;8.02;;;7.15;;
22904;SDS011;11619;50.140;8.518;2023-04-16T06:42:27;8.18;;;6.90;;
22904;SDS011;11619;50.140;8.518;2023-04-16T06:44:54;7.95;;;6.72;;
22904;SDS011;11619;50.140;8.518;2023-04-16T06:47:20;8.00;;;7.18;;
22904;SDS011;11619;50.140;8.518;2023-04-16T06:49:47;6.72;;;5.95;;
22904;SDS011;11619;50.140;8.518;2023-04-16T06:52:13;6.45;;;5.80;;
22904;SDS011;11619;50.140;8.518;2023-04-16T06:54:40;6.97;;;5.93;;
22904;SDS011;11619;50.140;8.518;2023-04-16T06:57:06;5.90;;;5.30;;
22904;SDS011;11619;50.140;8.518;2023-04-16T06:59:33;5.97;;;5.38;;
22904;SDS011;11619;50.140;8.518;2023-04-16T07:01:59;6.60;;;5.90;;
22904;SDS011;11619;50.140;8.518;2023-04-16T07:04:26;5.60;;;4.90;;
22904;SDS011;11619;50.140;8.518;2023-04-16T07:06:52;9.00;;;6.88;;
22904;SDS011;11619;50.140;8.518;2023-04-16T07:09:19;6.70;;;6.00;;
22904;SDS011;11619;50.140;8.518;2023-04-16T07:11:45;6.32;;;5.72;;
22904;SDS011;11619;50.140;8.518;2023-04-16T07:14:12;6.57;;;5.97;;
22904;SDS011;11619;50.140;8.518;2023-04-16T07:16:38;6.25;;;5.65;;
22904;SDS011;11619;50.140;8.518;2023-04-16T07:19:05;6.78;;;6.07;;
22904;SDS011;11619;50.140;8.518;2023-04-16T07:21:32;7.28;;;6.43;;
22904;SDS011;11619;50.140;8.518;2023-04-16T07:23:58;7.40;;;6.15;;
22904;SDS011;11619;50.140;8.518;2023-04-16T07:26:24;6.72;;;6.03;;
22904;SDS011;11619;50.140;8.518;2023-04-16T07:28:51;6.80;;;6.10;;
22904;SDS011;11619;50.140;8.518;2023-04-16T07:31:17;6.53;;;5.65;;
22904;SDS011;11619;50.140;8.518;2023-04-16T07:33:44;7.20;;;5.65;;
22904;SDS011;11619;50.140;8.518;2023-04-16T07:36:10;6.35;;;5.70;;
22904;SDS011;11619;50.140;8.518;2023-04-16T07:38:37;6.78;;;6.07;;
22904;SDS011;11619;50.140;8.518;2023-04-16T07:41:03;6.28;;;5.68;;
22904;SDS011;11619;50.140;8.518;2023-04-16T07:43:30;5.88;;;5.38;;
22904;SDS011;11619;50.140;8.518;2023-04-16T07:45:56;5.97;;;5.38;;
22904;SDS011;11619;50.140;8.518;2023-04-16T07:48:22;6.53;;;5.85;;
22904;SDS011;11619;50.140;8.518;2023-04-16T07:50:49;8.23;;;6.63;;
22904;SDS011;11619;50.140;8.518;2023-04-16T07:53:15;6.97;;;6.28;;
22904;SDS011;11619;50.140;8.518;2023-04-16T07:55:42;7.10;;;6.13;;
22904;SDS011;11619;50.140;8.518;2023-04-16T07:58:08;6.78;;;6.07;;
22904;SDS011;11619;50.140;8.518;2023-04-16T08:00:35;8.82;;;7.05;;
22904;SDS011;11619;50.140;8.518;2023-04-16T08:03:01;8.15;;;7.35;;
22904;SDS011;11619;50.140;8.518;2023-04-16T08:05:28;9.10;;;8.00;;
22904;SDS011;11619;50.140;8.518;2023-04-16T08:07:54;8.32;;;7.43;;
22904;SDS011;11619;50.140;8.518;2023-04-16T08:10:21;11.68;;;8.85;;
22904;SDS011;11619;50.140;8.518;2023-04-16T08:12:47;8.93;;;8.02;;
22904;SDS011;11619;50.140;8.518;2023-04-16T08:15:14;8.65;;;7.45;;
22904;SDS011;11619;50.140;8.518;2023-04-16T08:17:40;9.63;;;8.02;;
22904;SDS011;11619;50.140;8.518;2023-04-16T08:20:07;8.63;;;7.70;;
22904;SDS011;11619;50.140;8.518;2023-04-16T08:22:33;10.15;;;8.25;;
22904;SDS011;11619;50.140;8.518;2023-04-16T08:25:00;10.98;;;8.57;;
22904;SDS011;11619;50.140;8.518;2023-04-16T08:27:27;8.65;;;7.85;;
22904;SDS011;11619;50.140;8.518;2023-04-16T08:29:54;8.55;;;7.65;;
22904;SDS011;11619;50.140;8.518;2023-04-16T08:32:20;7.88;;;7.07;;
22904;SDS011;11619;50.140;8.518;2023-04-16T08:34:47;9.32;;;8.10;;
22904;SDS011;11619;50.140;8.518;2023-04-16T08:37:13;9.57;;;8.60;;
22904;SDS011;11619;50.140;8.518;2023-04-16T08:39:40;8.50;;;7.60;;
22904;SDS011;11619;50.140;8.518;2023-04-16T08:42:08;7.93;;;7.13;;
22904;SDS011;11619;50.140;8.518;2023-04-16T08:44:40;9.30;;;8.20;;
22904;SDS011;11619;50.140;8.518;2023-04-16T08:47:09;9.68;;;8.68;;
22904;SDS011;11619;50.140;8.518;2023-04-16T08:49:41;10.85;;;9.02;;
22904;SDS011;11619;50.140;8.518;2023-04-16T08:52:09;11.57;;;9.65;;
22904;SDS011;11619;50.140;8.518;2023-04-16T08:57:43;9.93;;;8.90;;
22904;SDS011;11619;50.140;8.518;2023-04-16T09:00:13;12.27;;;9.15;;
22904;SDS011;11619;50.140;8.518;2023-04-16T09:02:41;13.57;;;9.95;;
22904;SDS011;11619;50.140;8.518;2023-04-16T09:05:09;10.40;;;9.15;;
22904;SDS011;11619;50.140;8.518;2023-04-16T09:07:36;10.60;;;9.45;;
22904;SDS011;11619;50.140;8.518;2023-04-16T09:10:02;10.88;;;8.10;;
22904;SDS011;11619;50.140;8.518;2023-04-16T09:12:30;10.80;;;9.18;;
22904;SDS011;11619;50.140;8.518;2023-04-16T09:14:57;9.45;;;8.45;;
22904;SDS011;11619;50.140;8.518;2023-04-16T09:17:26;10.85;;;8.95;;
22904;SDS011;11619;50.140;8.518;2023-04-16T09:19:53;10.20;;;8.98;;
22904;SDS011;11619;50.140;8.518;2023-04-16T09:22:20;11.02;;;8.70;;
22904;SDS011;11619;50.140;8.518;2023-04-16T09:24:46;10.52;;;8.07;;
22904;SDS011;11619;50.140;8.518;2023-04-16T09:27:12;9.18;;;8.20;;
22904;SDS011;11619;50.140;8.518;2023-04-16T09:29:39;9.40;;;8.40;;
22904;SDS011;11619;50.140;8.518;2023-04-16T09:32:07;10.30;;;8.63;;
22904;SDS011;11619;50.140;8.518;2023-04-16T09:34:37;9.73;;;8.68;;
22904;SDS011;11619;50.140;8.518;2023-04-16T09:37:19;9.07;;;7.75;;
22904;SDS011;11619;50.140;8.518;2023-04-16T09:39:53;9.20;;;8.18;;
22904;SDS011;11619;50.140;8.518;2023-04-16T09:42:24;9.95;;;7.95;;
22904;SDS011;11619;50.140;8.518;2023-04-16T09:44:52;10.35;;;8.50;;
22904;SDS011;11619;50.140;8.518;2023-04-16T09:47:19;7.93;;;7.13;;
22904;SDS011;11619;50.140;8.518;2023-04-16T09:49:46;8.25;;;7.00;;
22904;SDS011;11619;50.140;8.518;2023-04-16T09:52:13;8.57;;;7.70;;
22904;SDS011;11619;50.140;8.518;2023-04-16T09:54:51;7.78;;;6.97;;
22904;SDS011;11619;50.140;8.518;2023-04-16T09:57:18;6.78;;;6.07;;
22904;SDS011;11619;50.140;8.518;2023-04-16T09:59:51;7.43;;;6.55;;
22904;SDS011;11619;50.140;8.518;2023-04-16T10:02:19;7.45;;;6.57;;
22904;SDS011;11619;50.140;8.518;2023-04-16T10:07:13;8.85;;;7.25;;
22904;SDS011;11619;50.140;8.518;2023-04-16T10:09:39;8.25;;;7.38;;
22904;SDS011;11619;50.140;8.518;2023-04-16T10:12:06;7.38;;;6.60;;
22904;SDS011;11619;50.140;8.518;2023-04-16T10:14:33;7.50;;;6.80;;
22904;SDS011;11619;50.140;8.518;2023-04-16T10:17:01;8.40;;;7.50;;
22904;SDS011;11619;50.140;8.518;2023-04-16T10:19:28;8.35;;;7.22;;
22904;SDS011;11619;50.140;8.518;2023-04-16T10:21:56;7.03;;;6.25;;
22904;SDS011;11619;50.140;8.518;2023-04-16T10:24:29;7.72;;;6.95;;
22904;SDS011;11619;50.140;8.518;2023-04-16T10:26:57;9.07;;;7.55;;
22904;SDS011;11619;50.140;8.518;2023-04-16T10:29:24;9.13;;;7.95;;
22904;SDS011;11619;50.140;8.518;2023-04-16T10:31:52;8.55;;;7.75;;
22904;SDS011;11619;50.140;8.518;2023-04-16T10:34:19;8.82;;;7.47;;
22904;SDS011;11619;50.140;8.518;2023-04-16T10:36:47;8.65;;;7.78;;
22904;SDS011;11619;50.140;8.518;2023-04-16T10:39:17;8.88;;;7.78;;
22904;SDS011;11619;50.140;8.518;2023-04-16T10:41:45;9.40;;;8.40;;
22904;SDS011;11619;50.140;8.518;2023-04-16T10:44:12;11.48;;;8.07;;
22904;SDS011;11619;50.140;8.518;2023-04-16T10:46:39;8.80;;;7.82;;
22904;SDS011;11619;50.140;8.518;2023-04-16T10:49:13;7.90;;;7.10;;
22904;SDS011;11619;50.140;8.518;2023-04-16T10:51:53;9.32;;;7.60;;
22904;SDS011;11619;50.140;8.518;2023-04-16T10:56:48;8.95;;;8.02;;
22904;SDS011;11619;50.140;8.518;2023-04-16T10:59:19;9.15;;;7.68;;
22904;SDS011;11619;50.140;8.518;2023-04-16T11:01:47;9.73;;;7.63;;
22904;SDS011;11619;50.140;8.518;2023-04-16T11:14:57;10.00;;;8.90;;
22904;SDS011;11619;50.140;8.518;2023-04-16T11:17:38;10.10;;;8.85;;
22904;SDS011;11619;50.140;8.518;2023-04-16T11:20:19;10.40;;;9.10;;
22904;SDS011;11619;50.140;8.518;2023-04-16T11:22:50;11.70;;;9.93;;
22904;SDS011;11619;50.140;8.518;2023-04-16T11:25:29;11.68;;;10.27;;
22904;SDS011;11619;50.140;8.518;2023-04-16T11:27:56;10.68;;;9.43;;
22904;SDS011;11619;50.140;8.518;2023-04-16T11:30:38;14.77;;;11.40;;
22904;SDS011;11619;50.140;8.518;2023-04-16T11:33:06;12.50;;;11.20;;
22904;SDS011;11619;50.140;8.518;2023-04-16T11:35:33;11.95;;;10.20;;
22904;SDS011;11619;50.140;8.518;2023-04-16T11:37:59;16.95;;;12.40;;
22904;SDS011;11619;50.140;8.518;2023-04-16T11:40:29;11.85;;;10.65;;
22904;SDS011;11619;50.140;8.518;2023-04-16T11:43:02;12.43;;;11.00;;
22904;SDS011;11619;50.140;8.518;2023-04-16T11:45:30;13.75;;;11.07;;
22904;SDS011;11619;50.140;8.518;2023-04-16T11:47:57;13.35;;;11.95;;
22904;SDS011;11619;50.140;8.518;2023-04-16T11:50:24;14.40;;;11.60;;
22904;SDS011;11619;50.140;8.518;2023-04-16T11:52:56;13.48;;;11.25;;
22904;SDS011;11619;50.140;8.518;2023-04-16T11:55:23;12.73;;;10.95;;
22904;SDS011;11619;50.140;8.518;2023-04-16T11:57:50;11.65;;;10.40;;
22904;SDS011;11619;50.140;8.518;2023-04-16T12:00:17;13.20;;;11.38;;
22904;SDS011;11619;50.140;8.518;2023-04-16T12:02:50;15.07;;;11.23;;
22904;SDS011;11619;50.140;8.518;2023-04-16T12:05:24;13.00;;;10.27;;
22904;SDS011;11619;50.140;8.518;2023-04-16T12:07:59;13.40;;;10.88;;
22904;SDS011;11619;50.140;8.518;2023-04-16T12:10:27;12.10;;;10.00;;
22904;SDS011;11619;50.140;8.518;2023-04-16T12:13:08;12.65;;;10.88;;
22904;SDS011;11619;50.140;8.518;2023-04-16T12:15:51;13.27;;;11.73;;
22904;SDS011;11619;50.140;8.518;2023-04-16T12:18:19;15.25;;;11.35;;
22904;SDS011;11619;50.140;8.518;2023-04-16T12:20:48;13.20;;;10.48;;
22904;SDS011;11619;50.140;8.518;2023-04-16T12:23:24;10.77;;;9.68;;
22904;SDS011;11619;50.140;8.518;2023-04-16T12:25:52;11.25;;;10.07;;
22904;SDS011;11619;50.140;8.518;2023-04-16T12:28:29;10.57;;;9.45;;
22904;SDS011;11619;50.140;8.518;2023-04-16T12:30:56;9.00;;;8.10;;
22904;SDS011;11619;50.140;8.518;2023-04-16T12:33:23;8.75;;;7.90;;
22904;SDS011;11619;50.140;8.518;2023-04-16T12:35:49;9.93;;;8.75;;
22904;SDS011;11619;50.140;8.518;2023-04-16T12:38:16;9.50;;;8.50;;
22904;SDS011;11619;50.140;8.518;2023-04-16T12:40:42;12.80;;;9.63;;
22904;SDS011;11619;50.140;8.518;2023-04-16T12:43:09;12.90;;;9.48;;
22904;SDS011;11619;50.140;8.518;2023-04-16T12:45:37;11.60;;;9.70;;
22904;SDS011;11619;50.140;8.518;2023-04-16T12:48:04;9.80;;;8.80;;
22904;SDS011;11619;50.140;8.518;2023-04-16T12:50:31;10.35;;;9.18;;
22904;SDS011;11619;50.140;8.518;2023-04-16T12:52:58;9.68;;;8.70;;
22904;SDS011;11619;50.140;8.518;2023-04-16T12:55:24;10.65;;;8.90;;
22904;SDS011;11619;50.140;8.518;2023-04-16T12:57:51;9.82;;;8.82;;
22904;SDS011;11619;50.140;8.518;2023-04-16T13:00:20;9.80;;;8.80;;
22904;SDS011;11619;50.140;8.518;2023-04-16T13:02:46;9.65;;;8.25;;
22904;SDS011;11619;50.140;8.518;2023-04-16T13:05:13;11.52;;;8.75;;
22904;SDS011;11619;50.140;8.518;2023-04-16T13:07:41;9.68;;;8.68;;
22904;SDS011;11619;50.140;8.518;2023-04-16T13:10:08;10.60;;;9.40;;
22904;SDS011;11619;50.140;8.518;2023-04-16T13:12:35;10.07;;;9.07;;
22904;SDS011;11619;50.140;8.518;2023-04-16T13:15:01;10.10;;;9.10;;
22904;SDS011;11619;50.140;8.518;2023-04-16T13:17:28;13.32;;;10.32;;
22904;SDS011;11619;50.140;8.518;2023-04-16T13:19:54;10.13;;;9.07;;
22904;SDS011;11619;50.140;8.518;2023-04-16T13:22:21;17.50;;;10.20;;
22904;SDS011;11619;50.140;8.518;2023-04-16T13:24:47;13.63;;;9.80;;
22904;SDS011;11619;50.140;8.518;2023-04-16T13:27:14;11.98;;;9.80;;
22904;SDS011;11619;50.140;8.518;2023-04-16T13:29:41;12.82;;;9.80;;
22904;SDS011;11619;50.140;8.518;2023-04-16T13:32:08;12.00;;;10.80;;
22904;SDS011;11619;50.140;8.518;2023-04-16T13:34:34;12.63;;;10.65;;
22904;SDS011;11619;50.140;8.518;2023-04-16T13:37:01;12.07;;;10.88;;
22904;SDS011;11619;50.140;8.518;2023-04-16T13:39:27;14.00;;;11.10;;
22904;SDS011;11619;50.140;8.518;2023-04-16T13:41:53;13.35;;;10.82;;
22904;SDS011;11619;50.140;8.518;2023-04-16T13:44:20;13.30;;;11.50;;
22904;SDS011;11619;50.140;8.518;2023-04-16T13:46:48;11.80;;;10.60;;
22904;SDS011;11619;50.140;8.518;2023-04-16T13:49:15;9.98;;;9.07;;
22904;SDS011;11619;50.140;8.518;2023-04-16T13:51:41;9.88;;;8.88;;
22904;SDS011;11619;50.140;8.518;2023-04-16T13:54:09;11.35;;;9.02;;
22904;SDS011;11619;50.140;8.518;2023-04-16T13:56:35;10.30;;;8.43;;
22904;SDS011;11619;50.140;8.518;2023-04-16T13:59:02;9.70;;;8.70;;
22904;SDS011;11619;50.140;8.518;2023-04-16T14:01:28;9.90;;;8.90;;
22904;SDS011;11619;50.140;8.518;2023-04-16T14:03:55;11.32;;;8.65;;
22904;SDS011;11619;50.140;8.518;2023-04-16T14:06:21;8.98;;;7.95;;
22904;SDS011;11619;50.140;8.518;2023-04-16T14:08:48;8.82;;;7.93;;
22904;SDS011;11619;50.140;8.518;2023-04-16T14:11:14;9.23;;;8.10;;
22904;SDS011;11619;50.140;8.518;2023-04-16T14:13:40;8.80;;;7.88;;
22904;SDS011;11619;50.140;8.518;2023-04-16T14:16:07;10.27;;;7.93;;
22904;SDS011;11619;50.140;8.518;2023-04-16T14:18:33;9.00;;;8.10;;
22904;SDS011;11619;50.140;8.518;2023-04-16T14:21:00;8.13;;;7.30;;
22904;SDS011;11619;50.140;8.518;2023-04-16T14:23:27;8.18;;;7.38;;
22904;SDS011;11619;50.140;8.518;2023-04-16T14:25:54;8.18;;;7.38;;
22904;SDS011;11619;50.140;8.518;2023-04-16T14:28:21;9.05;;;7.13;;
22904;SDS011;11619;50.140;8.518;2023-04-16T14:30:47;8.48;;;7.65;;
22904;SDS011;11619;50.140;8.518;2023-04-16T14:33:13;8.63;;;7.30;;
22904;SDS011;11619;50.140;8.518;2023-04-16T14:35:40;7.80;;;7.00;;
22904;SDS011;11619;50.140;8.518;2023-04-16T14:38:06;8.40;;;7.53;;
22904;SDS011;11619;50.140;8.518;2023-04-16T14:40:33;8.15;;;6.85;;
22904;SDS011;11619;50.140;8.518;2023-04-16T14:42:59;7.72;;;6.95;;
22904;SDS011;11619;50.140;8.518;2023-04-16T14:45:26;7.22;;;6.07;;
22904;SDS011;11619;50.140;8.518;2023-04-16T14:47:55;7.70;;;6.53;;
22904;SDS011;11619;50.140;8.518;2023-04-16T14:50:22;7.63;;;6.82;;
22904;SDS011;11619;50.140;8.518;2023-04-16T14:52:49;6.82;;;6.22;;
22904;SDS011;11619;50.140;8.518;2023-04-16T14:55:15;8.43;;;6.65;;
22904;SDS011;11619;50.140;8.518;2023-04-16T14:57:42;8.52;;;6.43;;
22904;SDS011;11619;50.140;8.518;2023-04-16T15:00:08;7.32;;;6.00;;